sensor_id;sensor_type;location;lat;lon;timestamp;pressure;altitude;pressure_sealevel;temperature;humidity
2339;BME280;1180;51.438;6.978;2024-02-04T00:01:19;101018.63;;;12.86;100.00
2339;BME280;1180;51.438;6.978;2024-02-04T00:03:45;101019.09;;;12.93;100.00
2339;BME280;1180;51.438;6.978;2024-02-04T00:06:10;101024.91;;;12.96;100.00
2339;BME280;1180;51.438;6.978;2024-02-04T00:08:36;101032.72;;;12.95;100.00
2339;BME280;1180;51.438;6.978;2024-02-04T00:11:02;101025.56;;;13.00;100.00
2339;BME280;1180;51.438;6.978;2024-02-04T00:13:29;101020.34;;;12.85;100.00
2339;BME280;1180;51.438;6.978;2024-02-04T00:15:55;101000.59;;;12.86;100.00
2339;BME280;1180;51.438;6.978;2024-02-04T00:18:23;100991.84;;;12.89;100.00
2339;BME280;1180;51.438;6.978;2024-02-04T00:20:49;100988.50;;;12.72;100.00
2339;BME280;1180;51.438;6.978;2024-02-04T00:23:14;100984.38;;;12.84;100.00
2339;BME280;1180;51.438;6.978;2024-02-04T00:25:39;100980.97;;;12.83;100.00
2339;BME280;1180;51.438;6.978;2024-02-04T00:28:06;100982.91;;;12.80;100.00
2339;BME280;1180;51.438;6.978;2024-02-04T00:30:32;100991.03;;;12.88;100.00
2339;BME280;1180;51.438;6.978;2024-02-04T00:32:57;100994.59;;;12.85;100.00
2339;BME280;1180;51.438;6.978;2024-02-04T00:35:28;100988.69;;;12.83;100.00
2339;BME280;1180;51.438;6.978;2024-02-04T00:37:53;100999.38;;;12.61;100.00
2339;BME280;1180;51.438;6.978;2024-02-04T00:40:19;100999.63;;;12.56;100.00
2339;BME280;1180;51.438;6.978;2024-02-04T00:42:44;100999.88;;;12.68;100.00
2339;BME280;1180;51.438;6.978;2024-02-04T00:45:10;101010.06;;;12.69;100.00
2339;BME280;1180;51.438;6.978;2024-02-04T00:47:35;100993.22;;;12.80;100.00
2339;BME280;1180;51.438;6.978;2024-02-04T00:50:01;100998.25;;;12.81;100.00
2339;BME280;1180;51.438;6.978;2024-02-04T00:52:26;101000.63;;;12.70;100.00
2339;BME280;1180;51.438;6.978;2024-02-04T00:54:51;100997.94;;;12.71;100.00
2339;BME280;1180;51.438;6.978;2024-02-04T00:57:17;100996.97;;;12.74;100.00
2339;BME280;1180;51.438;6.978;2024-02-04T00:59:42;100990.72;;;12.78;100.00
2339;BME280;1180;51.438;6.978;2024-02-04T01:02:07;100997.53;;;12.79;100.00
2339;BME280;1180;51.438;6.978;2024-02-04T01:04:33;100989.63;;;12.82;100.00
2339;BME280;1180;51.438;6.978;2024-02-04T01:06:58;100981.75;;;12.69;100.00
2339;BME280;1180;51.438;6.978;2024-02-04T01:09:23;100984.50;;;12.66;100.00
2339;BME280;1180;51.438;6.978;2024-02-04T01:11:49;100987.75;;;12.70;100.00
2339;BME280;1180;51.438;6.978;2024-02-04T01:14:14;100995.16;;;12.60;100.00
2339;BME280;1180;51.438;6.978;2024-02-04T01:16:39;100996.56;;;12.66;100.00
2339;BME280;1180;51.438;6.978;2024-02-04T01:19:05;100994.72;;;12.68;100.00
2339;BME280;1180;51.438;6.978;2024-02-04T01:21:30;100986.09;;;12.69;100.00
2339;BME280;1180;51.438;6.978;2024-02-04T01:23:56;100987.63;;;12.71;100.00
2339;BME280;1180;51.438;6.978;2024-02-04T01:26:21;100993.25;;;12.64;100.00
2339;BME280;1180;51.438;6.978;2024-02-04T01:28:48;100992.34;;;12.65;100.00
2339;BME280;1180;51.438;6.978;2024-02-04T01:31:14;100997.66;;;12.62;100.00
2339;BME280;1180;51.438;6.978;2024-02-04T01:33:39;100999.94;;;12.66;100.00
2339;BME280;1180;51.438;6.978;2024-02-04T01:36:04;101000.53;;;12.71;100.00
2339;BME280;1180;51.438;6.978;2024-02-04T01:38:30;101000.53;;;12.71;100.00
2339;BME280;1180;51.438;6.978;2024-02-04T01:40:55;101014.59;;;12.66;100.00
2339;BME280;1180;51.438;6.978;2024-02-04T01:43:22;101015.34;;;12.68;100.00
2339;BME280;1180;51.438;6.978;2024-02-04T01:45:50;101011.28;;;12.64;100.00
2339;BME280;1180;51.438;6.978;2024-02-04T01:48:17;101001.44;;;12.70;100.00
2339;BME280;1180;51.438;6.978;2024-02-04T01:50:43;100999.69;;;12.71;100.00
2339;BME280;1180;51.438;6.978;2024-02-04T01:53:09;100992.47;;;12.78;100.00
2339;BME280;1180;51.438;6.978;2024-02-04T01:55:35;100982.41;;;12.73;100.00
2339;BME280;1180;51.438;6.978;2024-02-04T01:58:01;100991.13;;;12.70;100.00
2339;BME280;1180;51.438;6.978;2024-02-04T02:00:27;100978.19;;;12.72;100.00
2339;BME280;1180;51.438;6.978;2024-02-04T02:02:53;100977.88;;;12.62;100.00
2339;BME280;1180;51.438;6.978;2024-02-04T02:05:19;100980.69;;;12.57;100.00
2339;BME280;1180;51.438;6.978;2024-02-04T02:07:44;100978.25;;;12.70;100.00
2339;BME280;1180;51.438;6.978;2024-02-04T02:10:11;100977.66;;;12.81;100.00
2339;BME280;1180;51.438;6.978;2024-02-04T02:12:48;100977.94;;;12.77;100.00
2339;BME280;1180;51.438;6.978;2024-02-04T02:15:19;100980.72;;;12.88;100.00
2339;BME280;1180;51.438;6.978;2024-02-04T02:20:23;100984.88;;;12.75;100.00
2339;BME280;1180;51.438;6.978;2024-02-04T02:23:02;100986.47;;;12.77;100.00
2339;BME280;1180;51.438;6.978;2024-02-04T02:25:33;100982.78;;;12.67;100.00
2339;BME280;1180;51.438;6.978;2024-02-04T02:28:01;100991.03;;;12.88;100.00
2339;BME280;1180;51.438;6.978;2024-02-04T02:30:26;100980.41;;;12.78;100.00
2339;BME280;1180;51.438;6.978;2024-02-04T02:32:52;100983.22;;;12.74;100.00
2339;BME280;1180;51.438;6.978;2024-02-04T02:35:17;100997.03;;;12.73;100.00
2339;BME280;1180;51.438;6.978;2024-02-04T02:40:23;100991.84;;;12.89;100.00
2339;BME280;1180;51.438;6.978;2024-02-04T02:42:52;100984.81;;;12.76;100.00
2339;BME280;1180;51.438;6.978;2024-02-04T02:45:20;100983.47;;;12.85;100.00
2339;BME280;1180;51.438;6.978;2024-02-04T02:47:52;100977.22;;;12.89;100.00
2339;BME280;1180;51.438;6.978;2024-02-04T02:50:18;100982.56;;;12.86;100.00
2339;BME280;1180;51.438;6.978;2024-02-04T02:52:43;100991.06;;;12.72;100.00
2339;BME280;1180;51.438;6.978;2024-02-04T02:55:08;100986.81;;;12.71;100.00
2339;BME280;1180;51.438;6.978;2024-02-04T02:57:34;100984.88;;;12.75;100.00
2339;BME280;1180;51.438;6.978;2024-02-04T02:59:59;100986.03;;;12.85;100.00
2339;BME280;1180;51.438;6.978;2024-02-04T03:02:24;100976.75;;;12.82;100.00
2339;BME280;1180;51.438;6.978;2024-02-04T03:04:50;100973.78;;;12.74;100.00
2339;BME280;1180;51.438;6.978;2024-02-04T03:07:16;100969.19;;;12.79;100.00
2339;BME280;1180;51.438;6.978;2024-02-04T03:09:41;100976.56;;;12.85;100.00
2339;BME280;1180;51.438;6.978;2024-02-04T03:12:06;100979.44;;;12.95;100.00
2339;BME280;1180;51.438;6.978;2024-02-04T03:14:32;100978.03;;;12.90;100.00
2339;BME280;1180;51.438;6.978;2024-02-04T03:16:57;100970.50;;;12.86;100.00
2339;BME280;1180;51.438;6.978;2024-02-04T03:19:23;100974.50;;;12.76;100.00
2339;BME280;1180;51.438;6.978;2024-02-04T03:21:48;100976.38;;;12.89;100.00
2339;BME280;1180;51.438;6.978;2024-02-04T03:24:13;100970.22;;;12.91;100.00
2339;BME280;1180;51.438;6.978;2024-02-04T03:26:39;100969.69;;;12.86;100.00
2339;BME280;1180;51.438;6.978;2024-02-04T03:29:04;100965.16;;;12.90;100.00
2339;BME280;1180;51.438;6.978;2024-02-04T03:31:30;100962.44;;;12.93;100.00
2339;BME280;1180;51.438;6.978;2024-02-04T03:33:56;100956.41;;;12.78;100.00
2339;BME280;1180;51.438;6.978;2024-02-04T03:36:23;100958.00;;;12.95;100.00
2339;BME280;1180;51.438;6.978;2024-02-04T03:38:50;100948.44;;;12.97;100.00
2339;BME280;1180;51.438;6.978;2024-02-04T03:41:15;100946.50;;;13.00;100.00
2339;BME280;1180;51.438;6.978;2024-02-04T03:43:41;100937.59;;;13.06;100.00
2339;BME280;1180;51.438;6.978;2024-02-04T03:46:06;100934.84;;;13.09;100.00
2339;BME280;1180;51.438;6.978;2024-02-04T03:48:31;100926.00;;;12.99;100.00
2339;BME280;1180;51.438;6.978;2024-02-04T03:50:58;100938.97;;;12.97;100.00
2339;BME280;1180;51.438;6.978;2024-02-04T03:53:24;100945.69;;;13.00;100.00
2339;BME280;1180;51.438;6.978;2024-02-04T03:55:50;100947.91;;;13.06;100.00
2339;BME280;1180;51.438;6.978;2024-02-04T03:58:15;100946.44;;;13.02;100.00
2339;BME280;1180;51.438;6.978;2024-02-04T04:00:41;100951.41;;;13.05;100.00
2339;BME280;1180;51.438;6.978;2024-02-04T04:03:06;100952.56;;;12.99;100.00
2339;BME280;1180;51.438;6.978;2024-02-04T04:05:31;100946.31;;;12.89;100.00
2339;BME280;1180;51.438;6.978;2024-02-04T04:07:57;100941.34;;;12.86;100.00
2339;BME280;1180;51.438;6.978;2024-02-04T04:10:22;100932.25;;;12.95;100.00
2339;BME280;1180;51.438;6.978;2024-02-04T04:12:48;100931.97;;;12.99;100.00
2339;BME280;1180;51.438;6.978;2024-02-04T04:15:13;100935.28;;;12.87;100.00
2339;BME280;1180;51.438;6.978;2024-02-04T04:17:38;100933.31;;;12.91;100.00
2339;BME280;1180;51.438;6.978;2024-02-04T04:20:06;100944.94;;;12.98;100.00
2339;BME280;1180;51.438;6.978;2024-02-04T04:22:32;100939.41;;;12.90;100.00
2339;BME280;1180;51.438;6.978;2024-02-04T04:24:57;100941.91;;;12.91;100.00
2339;BME280;1180;51.438;6.978;2024-02-04T04:27:22;100945.13;;;12.95;100.00
2339;BME280;1180;51.438;6.978;2024-02-04T04:29:48;100943.81;;;12.88;100.00
2339;BME280;1180;51.438;6.978;2024-02-04T04:32:13;100950.63;;;12.89;100.00
2339;BME280;1180;51.438;6.978;2024-02-04T04:34:38;100971.22;;;12.89;100.00
2339;BME280;1180;51.438;6.978;2024-02-04T04:37:04;100969.19;;;12.79;100.00
2339;BME280;1180;51.438;6.978;2024-02-04T04:39:29;100977.41;;;12.86;100.00
2339;BME280;1180;51.438;6.978;2024-02-04T04:41:54;100960.19;;;12.86;100.00
2339;BME280;1180;51.438;6.978;2024-02-04T04:44:20;100983.53;;;12.83;100.00
2339;BME280;1180;51.438;6.978;2024-02-04T04:46:45;100973.16;;;12.85;100.00
2339;BME280;1180;51.438;6.978;2024-02-04T04:49:10;100965.63;;;12.96;100.00
2339;BME280;1180;51.438;6.978;2024-02-04T04:51:36;100965.66;;;12.66;100.00
2339;BME280;1180;51.438;6.978;2024-02-04T04:54:01;100965.78;;;12.79;100.00
2339;BME280;1180;51.438;6.978;2024-02-04T04:56:26;100960.06;;;12.74;100.00
2339;BME280;1180;51.438;6.978;2024-02-04T04:58:52;100955.00;;;12.72;100.00
2339;BME280;1180;51.438;6.978;2024-02-04T05:01:17;100955.56;;;12.77;100.00
2339;BME280;1180;51.438;6.978;2024-02-04T05:03:43;100948.88;;;12.89;100.00
2339;BME280;1180;51.438;6.978;2024-02-04T05:06:09;100953.78;;;12.94;100.00
2339;BME280;1180;51.438;6.978;2024-02-04T05:08:34;100945.22;;;12.93;100.00
2339;BME280;1180;51.438;6.978;2024-02-04T05:11:00;100943.13;;;13.00;100.00
2339;BME280;1180;51.438;6.978;2024-02-04T05:13:25;100944.66;;;13.03;100.00
2339;BME280;1180;51.438;6.978;2024-02-04T05:15:50;100938.22;;;12.95;100.00
2339;BME280;1180;51.438;6.978;2024-02-04T05:18:16;100952.88;;;12.95;100.00
2339;BME280;1180;51.438;6.978;2024-02-04T05:20:41;100957.28;;;12.93;100.00
2339;BME280;1180;51.438;6.978;2024-02-04T05:23:08;100954.66;;;12.78;100.00
2339;BME280;1180;51.438;6.978;2024-02-04T05:25:34;100953.97;;;12.75;100.00
2339;BME280;1180;51.438;6.978;2024-02-04T05:27:59;100967.28;;;12.83;100.00
2339;BME280;1180;51.438;6.978;2024-02-04T05:30:24;100964.81;;;12.96;100.00
2339;BME280;1180;51.438;6.978;2024-02-04T05:32:50;100948.03;;;12.89;100.00
2339;BME280;1180;51.438;6.978;2024-02-04T05:35:15;100939.63;;;13.01;100.00
2339;BME280;1180;51.438;6.978;2024-02-04T05:37:40;100936.41;;;13.12;100.00
2339;BME280;1180;51.438;6.978;2024-02-04T05:40:06;100932.06;;;13.12;100.00
2339;BME280;1180;51.438;6.978;2024-02-04T05:42:32;100930.34;;;13.13;100.00
2339;BME280;1180;51.438;6.978;2024-02-04T05:44:58;100935.47;;;12.98;100.00
2339;BME280;1180;51.438;6.978;2024-02-04T05:47:23;100920.19;;;12.95;100.00
2339;BME280;1180;51.438;6.978;2024-02-04T05:49:48;100924.34;;;12.98;100.00
2339;BME280;1180;51.438;6.978;2024-02-04T05:52:14;100914.03;;;12.98;100.00
2339;BME280;1180;51.438;6.978;2024-02-04T05:54:40;100913.47;;;13.07;100.00
2339;BME280;1180;51.438;6.978;2024-02-04T05:57:05;100915.22;;;13.07;100.00
2339;BME280;1180;51.438;6.978;2024-02-04T05:59:31;100909.06;;;13.09;100.00
2339;BME280;1180;51.438;6.978;2024-02-04T06:01:57;100908.88;;;13.12;100.00
2339;BME280;1180;51.438;6.978;2024-02-04T06:04:22;100898.94;;;13.06;100.00
2339;BME280;1180;51.438;6.978;2024-02-04T06:06:47;100891.41;;;13.03;100.00
2339;BME280;1180;51.438;6.978;2024-02-04T06:09:13;100903.00;;;12.96;100.00
2339;BME280;1180;51.438;6.978;2024-02-04T06:11:39;100910.72;;;12.96;100.00
2339;BME280;1180;51.438;6.978;2024-02-04T06:14:04;100904.19;;;12.90;100.00
2339;BME280;1180;51.438;6.978;2024-02-04T06:16:29;100910.72;;;12.96;100.00
2339;BME280;1180;51.438;6.978;2024-02-04T06:18:55;100906.19;;;12.99;100.00
2339;BME280;1180;51.438;6.978;2024-02-04T06:21:22;100903.00;;;13.10;100.00
2339;BME280;1180;51.438;6.978;2024-02-04T06:23:48;100913.13;;;13.13;100.00
2339;BME280;1180;51.438;6.978;2024-02-04T06:26:13;100903.91;;;13.09;100.00
2339;BME280;1180;51.438;6.978;2024-02-04T06:28:38;100896.91;;;13.11;100.00
2339;BME280;1180;51.438;6.978;2024-02-04T06:31:04;100878.16;;;13.09;100.00
2339;BME280;1180;51.438;6.978;2024-02-04T06:33:29;100875.72;;;12.92;100.00
2339;BME280;1180;51.438;6.978;2024-02-04T06:35:55;100880.25;;;13.03;100.00
2339;BME280;1180;51.438;6.978;2024-02-04T06:38:21;100881.72;;;13.07;100.00
2339;BME280;1180;51.438;6.978;2024-02-04T06:40:46;100882.28;;;12.97;100.00
2339;BME280;1180;51.438;6.978;2024-02-04T06:43:12;100894.59;;;12.92;100.00
2339;BME280;1180;51.438;6.978;2024-02-04T06:45:37;100896.06;;;12.82;100.00
2339;BME280;1180;51.438;6.978;2024-02-04T06:48:03;100883.00;;;12.85;100.00
2339;BME280;1180;51.438;6.978;2024-02-04T06:50:28;100875.28;;;12.85;100.00
2339;BME280;1180;51.438;6.978;2024-02-04T06:52:53;100860.09;;;12.80;100.00
2339;BME280;1180;51.438;6.978;2024-02-04T06:55:19;100883.53;;;12.76;100.00
2339;BME280;1180;51.438;6.978;2024-02-04T06:57:44;100868.72;;;12.65;100.00
2339;BME280;1180;51.438;6.978;2024-02-04T07:00:10;100873.41;;;12.73;100.00
2339;BME280;1180;51.438;6.978;2024-02-04T07:02:37;100872.16;;;12.80;100.00
2339;BME280;1180;51.438;6.978;2024-02-04T07:05:02;100880.50;;;12.83;100.00
2339;BME280;1180;51.438;6.978;2024-02-04T07:07:28;100876.94;;;12.86;100.00
2339;BME280;1180;51.438;6.978;2024-02-04T07:09:53;100883.13;;;12.98;100.00
2339;BME280;1180;51.438;6.978;2024-02-04T07:12:18;100878.16;;;12.95;100.00
2339;BME280;1180;51.438;6.978;2024-02-04T07:14:44;100882.16;;;12.84;100.00
2339;BME280;1180;51.438;6.978;2024-02-04T07:17:09;100867.09;;;12.78;100.00
2339;BME280;1180;51.438;6.978;2024-02-04T07:19:37;100869.59;;;12.80;100.00
2339;BME280;1180;51.438;6.978;2024-02-04T07:22:02;100879.59;;;12.70;100.00
2339;BME280;1180;51.438;6.978;2024-02-04T07:24:27;100889.81;;;12.86;100.00
2339;BME280;1180;51.438;6.978;2024-02-04T07:26:53;100903.19;;;12.93;100.00
2339;BME280;1180;51.438;6.978;2024-02-04T07:29:18;100894.97;;;12.86;100.00
2339;BME280;1180;51.438;6.978;2024-02-04T07:31:44;100904.25;;;12.89;100.00
2339;BME280;1180;51.438;6.978;2024-02-04T07:34:09;100899.56;;;12.95;100.00
2339;BME280;1180;51.438;6.978;2024-02-04T07:36:34;100907.50;;;13.07;100.00
2339;BME280;1180;51.438;6.978;2024-02-04T07:39:01;100905.03;;;13.05;100.00
2339;BME280;1180;51.438;6.978;2024-02-04T07:41:30;100898.28;;;12.88;100.00
2339;BME280;1180;51.438;6.978;2024-02-04T07:43:55;100882.00;;;12.88;100.00
2339;BME280;1180;51.438;6.978;2024-02-04T07:46:20;100887.88;;;12.90;100.00
2339;BME280;1180;51.438;6.978;2024-02-04T07:48:46;100888.53;;;12.79;100.00
2339;BME280;1180;51.438;6.978;2024-02-04T07:51:12;100888.97;;;12.85;100.00
2339;BME280;1180;51.438;6.978;2024-02-04T07:53:38;100894.53;;;12.94;100.00
2339;BME280;1180;51.438;6.978;2024-02-04T07:56:03;100897.19;;;12.92;100.00
2339;BME280;1180;51.438;6.978;2024-02-04T07:58:31;100891.47;;;13.02;100.00
2339;BME280;1180;51.438;6.978;2024-02-04T08:00:57;100894.44;;;12.95;100.00
2339;BME280;1180;51.438;6.978;2024-02-04T08:03:22;100884.50;;;12.89;100.00
2339;BME280;1180;51.438;6.978;2024-02-04T08:05:48;100902.69;;;13.00;100.00
2339;BME280;1180;51.438;6.978;2024-02-04T08:08:13;100904.19;;;13.19;100.00
2339;BME280;1180;51.438;6.978;2024-02-04T08:10:38;100902.16;;;13.24;100.00
2339;BME280;1180;51.438;6.978;2024-02-04T08:13:04;100900.03;;;13.17;100.00
2339;BME280;1180;51.438;6.978;2024-02-04T08:15:29;100901.66;;;12.74;100.00
2339;BME280;1180;51.438;6.978;2024-02-04T08:17:54;100898.97;;;12.76;100.00
2339;BME280;1180;51.438;6.978;2024-02-04T08:20:20;100891.25;;;12.61;100.00
2339;BME280;1180;51.438;6.978;2024-02-04T08:22:46;100894.59;;;12.47;100.00
2339;BME280;1180;51.438;6.978;2024-02-04T08:25:12;100891.34;;;12.60;100.00
2339;BME280;1180;51.438;6.978;2024-02-04T08:27:37;100895.41;;;12.64;100.00
2339;BME280;1180;51.438;6.978;2024-02-04T08:30:04;100881.84;;;12.60;100.00
2339;BME280;1180;51.438;6.978;2024-02-04T08:32:30;100891.63;;;12.69;100.00
2339;BME280;1180;51.438;6.978;2024-02-04T08:34:55;100896.88;;;12.68;100.00
2339;BME280;1180;51.438;6.978;2024-02-04T08:37:21;100892.63;;;12.67;100.00
2339;BME280;1180;51.438;6.978;2024-02-04T08:39:46;100891.19;;;12.77;100.00
2339;BME280;1180;51.438;6.978;2024-02-04T08:42:12;100891.00;;;12.80;100.00
2339;BME280;1180;51.438;6.978;2024-02-04T08:44:37;100881.13;;;12.73;100.00
2339;BME280;1180;51.438;6.978;2024-02-04T08:47:02;100887.31;;;12.70;100.00
2339;BME280;1180;51.438;6.978;2024-02-04T08:49:29;100878.31;;;12.77;100.00
2339;BME280;1180;51.438;6.978;2024-02-04T08:51:55;100882.78;;;12.74;100.00
2339;BME280;1180;51.438;6.978;2024-02-04T08:54:20;100885.53;;;12.56;100.00
2339;BME280;1180;51.438;6.978;2024-02-04T08:56:45;100876.09;;;12.71;100.00
2339;BME280;1180;51.438;6.978;2024-02-04T08:59:11;100881.44;;;12.82;100.00
2339;BME280;1180;51.438;6.978;2024-02-04T09:01:36;100876.50;;;12.94;100.00
2339;BME280;1180;51.438;6.978;2024-02-04T09:04:01;100877.84;;;12.99;100.00
2339;BME280;1180;51.438;6.978;2024-02-04T09:06:27;100882.75;;;13.04;100.00
2339;BME280;1180;51.438;6.978;2024-02-04T09:08:52;100877.88;;;13.14;100.00
2339;BME280;1180;51.438;6.978;2024-02-04T09:11:18;100873.06;;;13.08;100.00
2339;BME280;1180;51.438;6.978;2024-02-04T09:13:46;100864.63;;;12.91;100.00
2339;BME280;1180;51.438;6.978;2024-02-04T09:16:12;100875.38;;;12.83;100.00
2339;BME280;1180;51.438;6.978;2024-02-04T09:18:37;100885.66;;;12.69;100.00
2339;BME280;1180;51.438;6.978;2024-02-04T09:21:03;100874.63;;;12.81;100.00
2339;BME280;1180;51.438;6.978;2024-02-04T09:23:28;100867.75;;;12.96;100.00
2339;BME280;1180;51.438;6.978;2024-02-04T09:25:54;100875.38;;;12.83;100.00
2339;BME280;1180;51.438;6.978;2024-02-04T09:28:19;100877.88;;;12.85;100.00
2339;BME280;1180;51.438;6.978;2024-02-04T09:30:45;100869.47;;;12.81;100.00
2339;BME280;1180;51.438;6.978;2024-02-04T09:33:11;100874.19;;;12.89;100.00
2339;BME280;1180;51.438;6.978;2024-02-04T09:35:37;100873.72;;;12.97;100.00
2339;BME280;1180;51.438;6.978;2024-02-04T09:38:02;100878.31;;;12.92;100.00
2339;BME280;1180;51.438;6.978;2024-02-04T09:40:28;100871.69;;;12.88;100.00
2339;BME280;1180;51.438;6.978;2024-02-04T09:42:55;100877.75;;;12.86;100.00
2339;BME280;1180;51.438;6.978;2024-02-04T09:45:21;100886.97;;;13.05;100.00
2339;BME280;1180;51.438;6.978;2024-02-04T09:47:47;100883.75;;;13.02;100.00
2339;BME280;1180;51.438;6.978;2024-02-04T09:50:15;100879.69;;;12.97;100.00
2339;BME280;1180;51.438;6.978;2024-02-04T09:52:40;100885.28;;;12.90;100.00
2339;BME280;1180;51.438;6.978;2024-02-04T09:55:10;100879.69;;;12.97;100.00
2339;BME280;1180;51.438;6.978;2024-02-04T09:57:38;100875.84;;;12.90;100.00
2339;BME280;1180;51.438;6.978;2024-02-04T10:00:03;100883.84;;;13.00;100.00
2339;BME280;1180;51.438;6.978;2024-02-04T10:02:33;100891.66;;;12.98;100.00
2339;BME280;1180;51.438;6.978;2024-02-04T10:04:59;100897.66;;;12.99;100.00
2339;BME280;1180;51.438;6.978;2024-02-04T10:07:24;100902.44;;;13.05;100.00
2339;BME280;1180;51.438;6.978;2024-02-04T10:09:49;100898.94;;;13.06;100.00
2339;BME280;1180;51.438;6.978;2024-02-04T10:12:15;100893.78;;;13.06;100.00
2339;BME280;1180;51.438;6.978;2024-02-04T10:14:40;100904.63;;;12.82;100.00
2339;BME280;1180;51.438;6.978;2024-02-04T10:17:06;100902.31;;;12.78;100.00
2339;BME280;1180;51.438;6.978;2024-02-04T10:19:32;100902.66;;;12.71;100.00
2339;BME280;1180;51.438;6.978;2024-02-04T10:22:00;100890.81;;;12.83;100.00
2339;BME280;1180;51.438;6.978;2024-02-04T10:24:27;100886.03;;;12.92;100.00
2339;BME280;1180;51.438;6.978;2024-02-04T10:26:54;100877.00;;;12.84;100.00
2339;BME280;1180;51.438;6.978;2024-02-04T10:29:19;100869.28;;;12.70;100.00
2339;BME280;1180;51.438;6.978;2024-02-04T10:31:45;100879.81;;;12.96;100.00
2339;BME280;1180;51.438;6.978;2024-02-04T10:34:10;100879.72;;;13.12;100.00
2339;BME280;1180;51.438;6.978;2024-02-04T10:36:35;100898.75;;;13.09;100.00
2339;BME280;1180;51.438;6.978;2024-02-04T10:39:01;100888.34;;;13.25;100.00
2339;BME280;1180;51.438;6.978;2024-02-04T10:41:29;100917.19;;;13.47;100.00
2339;BME280;1180;51.438;6.978;2024-02-04T10:43:58;100901.41;;;13.37;100.00
2339;BME280;1180;51.438;6.978;2024-02-04T10:46:29;100904.28;;;13.32;100.00
2339;BME280;1180;51.438;6.978;2024-02-04T10:48:56;100908.88;;;13.41;100.00
2339;BME280;1180;51.438;6.978;2024-02-04T10:51:26;100899.88;;;13.49;100.00
2339;BME280;1180;51.438;6.978;2024-02-04T10:53:54;100897.09;;;13.52;100.00
2339;BME280;1180;51.438;6.978;2024-02-04T10:56:30;100897.09;;;13.52;100.00
2339;BME280;1180;51.438;6.978;2024-02-04T10:58:58;100895.25;;;13.54;100.00
2339;BME280;1180;51.438;6.978;2024-02-04T11:01:25;100891.88;;;13.53;100.00
2339;BME280;1180;51.438;6.978;2024-02-04T11:03:51;100889.00;;;13.58;100.00
2339;BME280;1180;51.438;6.978;2024-02-04T11:06:20;100895.47;;;13.51;100.00
2339;BME280;1180;51.438;6.978;2024-02-04T11:08:46;100896.38;;;13.64;100.00
2339;BME280;1180;51.438;6.978;2024-02-04T11:11:11;100884.41;;;13.49;100.00
2339;BME280;1180;51.438;6.978;2024-02-04T11:13:38;100886.91;;;13.50;100.00
2339;BME280;1180;51.438;6.978;2024-02-04T11:16:09;100877.41;;;13.51;100.00
2339;BME280;1180;51.438;6.978;2024-02-04T11:18:58;100889.19;;;13.40;100.00
2339;BME280;1180;51.438;6.978;2024-02-04T11:21:39;100876.22;;;13.27;100.00
2339;BME280;1180;51.438;6.978;2024-02-04T11:24:29;100870.97;;;13.14;100.00
2339;BME280;1180;51.438;6.978;2024-02-04T11:26:57;100865.53;;;13.19;100.00
2339;BME280;1180;51.438;6.978;2024-02-04T11:29:24;100858.63;;;13.20;100.00
2339;BME280;1180;51.438;6.978;2024-02-04T11:31:51;100860.94;;;13.24;100.00
2339;BME280;1180;51.438;6.978;2024-02-04T11:34:16;100856.03;;;13.20;100.00
2339;BME280;1180;51.438;6.978;2024-02-04T11:36:42;100855.31;;;13.32;100.00
2339;BME280;1180;51.438;6.978;2024-02-04T11:39:17;100842.63;;;13.29;100.00
2339;BME280;1180;51.438;6.978;2024-02-04T11:41:47;100826.97;;;13.18;100.00
2339;BME280;1180;51.438;6.978;2024-02-04T11:44:19;100828.63;;;13.19;100.00
2339;BME280;1180;51.438;6.978;2024-02-04T11:46:47;100837.09;;;13.21;100.00
2339;BME280;1180;51.438;6.978;2024-02-04T11:49:17;100829.16;;;13.24;100.00
2339;BME280;1180;51.438;6.978;2024-02-04T11:51:47;100817.31;;;13.21;100.00
2339;BME280;1180;51.438;6.978;2024-02-04T11:54:16;100812.22;;;13.34;100.00
2339;BME280;1180;51.438;6.978;2024-02-04T11:56:43;100816.00;;;13.28;100.00
2339;BME280;1180;51.438;6.978;2024-02-04T11:59:09;100821.88;;;13.31;100.00
2339;BME280;1180;51.438;6.978;2024-02-04T12:01:35;100818.13;;;13.22;100.00
2339;BME280;1180;51.438;6.978;2024-02-04T12:04:15;100811.13;;;13.24;100.00
2339;BME280;1180;51.438;6.978;2024-02-04T12:06:41;100802.38;;;13.26;100.00
2339;BME280;1180;51.438;6.978;2024-02-04T12:09:08;100803.22;;;13.27;100.00
2339;BME280;1180;51.438;6.978;2024-02-04T12:11:37;100800.66;;;13.27;100.00
2339;BME280;1180;51.438;6.978;2024-02-04T12:14:07;100795.97;;;13.19;100.00
2339;BME280;1180;51.438;6.978;2024-02-04T12:16:33;100807.06;;;13.20;100.00
2339;BME280;1180;51.438;6.978;2024-02-04T12:19:00;100791.81;;;13.17;100.00
2339;BME280;1180;51.438;6.978;2024-02-04T12:21:26;100797.63;;;13.20;100.00
2339;BME280;1180;51.438;6.978;2024-02-04T12:23:52;100797.75;;;13.32;100.00
2339;BME280;1180;51.438;6.978;2024-02-04T12:26:18;100790.69;;;13.35;100.00
2339;BME280;1180;51.438;6.978;2024-02-04T12:28:43;100790.22;;;13.28;100.00
2339;BME280;1180;51.438;6.978;2024-02-04T12:31:25;100789.75;;;13.36;100.00
2339;BME280;1180;51.438;6.978;2024-02-04T12:33:58;100783.56;;;13.39;100.00
2339;BME280;1180;51.438;6.978;2024-02-04T12:36:28;100785.53;;;13.35;100.00
2339;BME280;1180;51.438;6.978;2024-02-04T12:38:55;100785.91;;;13.43;100.00
2339;BME280;1180;51.438;6.978;2024-02-04T12:41:22;100775.59;;;13.43;100.00
2339;BME280;1180;51.438;6.978;2024-02-04T12:43:52;100780.66;;;13.45;100.00
2339;BME280;1180;51.438;6.978;2024-02-04T12:46:18;100771.88;;;13.48;100.00
2339;BME280;1180;51.438;6.978;2024-02-04T12:48:44;100770.97;;;13.49;100.00
2339;BME280;1180;51.438;6.978;2024-02-04T12:51:10;100771.28;;;13.57;100.00
2339;BME280;1180;51.438;6.978;2024-02-04T12:53:37;100770.34;;;13.45;100.00
2339;BME280;1180;51.438;6.978;2024-02-04T12:56:02;100769.41;;;13.46;100.00
2339;BME280;1180;51.438;6.978;2024-02-04T12:58:28;100761.09;;;13.41;100.00
2339;BME280;1180;51.438;6.978;2024-02-04T13:01:00;100762.31;;;13.35;100.00